Assist Alamitos — WDH6800 — position and weather

sailwx.info

Track history (hours):
 
Tides and Currents Weather Stations Pressure Air Temp Water Temp Dewpoint Dewpoint Depression Visibility Wind Speed Wind Dir Waves Ship Positions

Assist Alamitos

Owner: Alamitos Bay Marine, Long Beach, CA. More information available from US FCC via Universal Licensing System and Coast Guard Vessel Documentation Center.

Last reported at 2017-Oct-22 22:30 UTC. Time now 2017-Nov-18 04:54 UTC.
Position N 33°45' W 118°07'.
Warning: this ship's position is 26 days out of date.

Length 9 m.

MMSI: 367641740.

Date/timePositionNaut miles runAvg speedWind from/ knotsBaromVisibWave heightAir tempDewpointWater temp
2017-Oct-22 22:30N 33°45' W 118°07'1 1.5
2017-Oct-22 22:00N 33°45' W 118°08'1 1.8
2017-Oct-22 21:29N 33°44' W 118°08'1 0.0
2017-Oct-21 22:47N 33°45' W 118°07'2 5.9
2017-Oct-21 22:31N 33°44' W 118°06'1 1.6
2017-Oct-21 21:58N 33°44' W 118°05'2 3.2
2017-Oct-21 21:29N 33°44' W 118°07'1 0.0
2017-Oct-20 19:54N 33°45' W 118°07'3 7.2
2017-Oct-20 19:30N 33°46' W 118°10'1 1.0
2017-Oct-20 18:59N 33°46' W 118°11'2 4.6
2017-Oct-20 18:30N 33°44' W 118°09'3 6.4
2017-Oct-20 18:00N 33°41' W 118°08'4 6.3
2017-Oct-20 17:25N 33°37' W 118°08'2 2.0
2017-Oct-20 16:29N 33°37' W 118°10'612.3
2017-Oct-20 15:58N 33°43' W 118°08'3 0.1
2017-Oct-19 01:11N 33°44' W 118°05'0 1.1
2017-Oct-19 00:57N 33°44' W 118°05'  
2017-Oct-16 00:10N 33°45' W 118°07'0 0.2
2017-Oct-16 00:00N 33°45' W 118°07'0 0.1
2017-Oct-15 23:30N 33°45' W 118°07'0 0.0
2017-Oct-15 22:47N 33°45' W 118°07'0 0.1
2017-Oct-15 22:30N 33°45' W 118°07'0 0.1
2017-Oct-15 22:00N 33°45' W 118°07'  
Track history (hours):
 
Tides and Currents Weather Stations Pressure Air Temp Water Temp Dewpoint Dewpoint Depression Visibility Wind Speed Wind Dir Waves Ship Positions

Assist Alamitos

Owner: Alamitos Bay Marine, Long Beach, CA. More information available from US FCC via Universal Licensing System and Coast Guard Vessel Documentation Center.

Last reported at 2017-Oct-22 22:30 UTC. Time now 2017-Nov-18 04:54 UTC.
Position N 33°45' W 118°07'.
Warning: this ship's position is 26 days out of date.

Length 9 m.

MMSI: 367641740.

Date/timePositionNaut miles runAvg speedWind from/ knotsBaromVisibWave heightAir tempDewpointWater temp
2017-Oct-22 22:30N 33°45' W 118°07'1 1.5
2017-Oct-22 22:00N 33°45' W 118°08'1 1.8
2017-Oct-22 21:29N 33°44' W 118°08'1 0.0
2017-Oct-21 22:47N 33°45' W 118°07'2 5.9
2017-Oct-21 22:31N 33°44' W 118°06'1 1.6
2017-Oct-21 21:58N 33°44' W 118°05'2 3.2
2017-Oct-21 21:29N 33°44' W 118°07'1 0.0
2017-Oct-20 19:54N 33°45' W 118°07'3 7.2
2017-Oct-20 19:30N 33°46' W 118°10'1 1.0
2017-Oct-20 18:59N 33°46' W 118°11'2 4.6
2017-Oct-20 18:30N 33°44' W 118°09'3 6.4
2017-Oct-20 18:00N 33°41' W 118°08'4 6.3
2017-Oct-20 17:25N 33°37' W 118°08'2 2.0
2017-Oct-20 16:29N 33°37' W 118°10'612.3
2017-Oct-20 15:58N 33°43' W 118°08'3 0.1
2017-Oct-19 01:11N 33°44' W 118°05'0 1.1
2017-Oct-19 00:57N 33°44' W 118°05'  
2017-Oct-16 00:10N 33°45' W 118°07'0 0.2
2017-Oct-16 00:00N 33°45' W 118°07'0 0.1
2017-Oct-15 23:30N 33°45' W 118°07'0 0.0
2017-Oct-15 22:47N 33°45' W 118°07'0 0.1
2017-Oct-15 22:30N 33°45' W 118°07'0 0.1
2017-Oct-15 22:00N 33°45' W 118°07'  

Dump ship's entire track history